sensor_id;sensor_type;location;lat;lon;timestamp;temperature;humidity
43920;DHT22;29578;51.946;5.874;2023-02-18T00:01:25;10.10;92.60
43920;DHT22;29578;51.946;5.874;2023-02-18T00:03:51;10.00;92.60
43920;DHT22;29578;51.946;5.874;2023-02-18T00:06:20;10.10;92.60
43920;DHT22;29578;51.946;5.874;2023-02-18T00:08:46;10.00;92.60
43920;DHT22;29578;51.946;5.874;2023-02-18T00:11:13;10.10;92.60
43920;DHT22;29578;51.946;5.874;2023-02-18T00:13:39;10.00;92.60
43920;DHT22;29578;51.946;5.874;2023-02-18T00:16:10;10.00;92.60
43920;DHT22;29578;51.946;5.874;2023-02-18T00:18:36;10.00;92.60
43920;DHT22;29578;51.946;5.874;2023-02-18T00:21:03;10.00;92.60
43920;DHT22;29578;51.946;5.874;2023-02-18T00:23:30;10.10;92.70
43920;DHT22;29578;51.946;5.874;2023-02-18T00:26:01;10.00;92.60
43920;DHT22;29578;51.946;5.874;2023-02-18T00:28:27;10.00;92.70
43920;DHT22;29578;51.946;5.874;2023-02-18T00:30:53;10.00;92.70
43920;DHT22;29578;51.946;5.874;2023-02-18T00:33:19;10.00;92.70
43920;DHT22;29578;51.946;5.874;2023-02-18T00:35:44;10.00;92.70
43920;DHT22;29578;51.946;5.874;2023-02-18T00:38:10;10.00;92.70
43920;DHT22;29578;51.946;5.874;2023-02-18T00:40:38;10.00;92.70
43920;DHT22;29578;51.946;5.874;2023-02-18T00:43:03;10.00;92.70
43920;DHT22;29578;51.946;5.874;2023-02-18T00:45:29;10.00;92.70
43920;DHT22;29578;51.946;5.874;2023-02-18T00:47:55;10.00;92.70
43920;DHT22;29578;51.946;5.874;2023-02-18T00:50:21;10.00;92.70
43920;DHT22;29578;51.946;5.874;2023-02-18T00:52:46;10.00;92.70
43920;DHT22;29578;51.946;5.874;2023-02-18T00:55:12;9.90;92.70
43920;DHT22;29578;51.946;5.874;2023-02-18T00:57:37;10.00;92.70
43920;DHT22;29578;51.946;5.874;2023-02-18T01:00:05;10.10;92.80
43920;DHT22;29578;51.946;5.874;2023-02-18T01:02:31;10.10;92.80
43920;DHT22;29578;51.946;5.874;2023-02-18T01:04:57;10.10;92.70
43920;DHT22;29578;51.946;5.874;2023-02-18T01:07:22;10.10;92.70
43920;DHT22;29578;51.946;5.874;2023-02-18T01:09:48;10.00;92.70
43920;DHT22;29578;51.946;5.874;2023-02-18T01:12:14;10.10;92.70
43920;DHT22;29578;51.946;5.874;2023-02-18T01:14:40;10.10;92.70
43920;DHT22;29578;51.946;5.874;2023-02-18T01:17:05;10.10;92.70
43920;DHT22;29578;51.946;5.874;2023-02-18T01:19:31;10.10;92.70
43920;DHT22;29578;51.946;5.874;2023-02-18T01:21:57;10.10;92.70
43920;DHT22;29578;51.946;5.874;2023-02-18T01:24:23;10.20;92.70
43920;DHT22;29578;51.946;5.874;2023-02-18T01:26:48;10.20;92.70
43920;DHT22;29578;51.946;5.874;2023-02-18T01:29:14;10.10;92.70
43920;DHT22;29578;51.946;5.874;2023-02-18T01:31:40;10.10;92.70
43920;DHT22;29578;51.946;5.874;2023-02-18T01:34:05;10.20;92.70
43920;DHT22;29578;51.946;5.874;2023-02-18T01:36:31;10.10;92.70
43920;DHT22;29578;51.946;5.874;2023-02-18T01:38:56;10.20;92.70
43920;DHT22;29578;51.946;5.874;2023-02-18T01:41:22;10.20;92.80
43920;DHT22;29578;51.946;5.874;2023-02-18T01:44:07;10.20;92.80
43920;DHT22;29578;51.946;5.874;2023-02-18T01:46:34;10.20;92.80
43920;DHT22;29578;51.946;5.874;2023-02-18T01:49:00;10.20;92.80
43920;DHT22;29578;51.946;5.874;2023-02-18T01:51:42;10.20;93.10
43920;DHT22;29578;51.946;5.874;2023-02-18T01:54:13;10.20;92.80
43920;DHT22;29578;51.946;5.874;2023-02-18T01:56:47;10.20;92.80
43920;DHT22;29578;51.946;5.874;2023-02-18T01:59:17;10.20;92.80
43920;DHT22;29578;51.946;5.874;2023-02-18T02:01:44;10.10;92.80
43920;DHT22;29578;51.946;5.874;2023-02-18T02:04:10;10.10;92.80
43920;DHT22;29578;51.946;5.874;2023-02-18T02:06:36;10.10;92.80
43920;DHT22;29578;51.946;5.874;2023-02-18T02:09:05;10.10;92.80
43920;DHT22;29578;51.946;5.874;2023-02-18T02:14:46;10.10;92.90
43920;DHT22;29578;51.946;5.874;2023-02-18T02:17:45;10.10;92.90
43920;DHT22;29578;51.946;5.874;2023-02-18T02:26:21;10.10;92.90
43920;DHT22;29578;51.946;5.874;2023-02-18T02:34:44;10.10;92.90
43920;DHT22;29578;51.946;5.874;2023-02-18T02:37:18;10.20;92.90
43920;DHT22;29578;51.946;5.874;2023-02-18T02:42:57;10.20;92.90
43920;DHT22;29578;51.946;5.874;2023-02-18T02:45:37;10.30;92.90
43920;DHT22;29578;51.946;5.874;2023-02-18T02:48:09;10.30;92.80
43920;DHT22;29578;51.946;5.874;2023-02-18T02:50:46;10.40;92.80
43920;DHT22;29578;51.946;5.874;2023-02-18T02:53:19;10.40;92.80
43920;DHT22;29578;51.946;5.874;2023-02-18T02:55:46;10.40;92.80
43920;DHT22;29578;51.946;5.874;2023-02-18T02:58:16;10.40;92.80
43920;DHT22;29578;51.946;5.874;2023-02-18T03:10:07;10.50;92.80
43920;DHT22;29578;51.946;5.874;2023-02-18T03:15:42;10.50;92.80
43920;DHT22;29578;51.946;5.874;2023-02-18T03:21:15;10.50;92.80
43920;DHT22;29578;51.946;5.874;2023-02-18T03:23:50;10.50;92.80
43920;DHT22;29578;51.946;5.874;2023-02-18T03:26:17;10.50;92.80
43920;DHT22;29578;51.946;5.874;2023-02-18T03:28:45;10.50;92.80
43920;DHT22;29578;51.946;5.874;2023-02-18T03:31:16;10.50;92.80
43920;DHT22;29578;51.946;5.874;2023-02-18T03:33:51;10.50;92.90
43920;DHT22;29578;51.946;5.874;2023-02-18T03:36:20;10.50;92.90
43920;DHT22;29578;51.946;5.874;2023-02-18T03:38:58;10.60;92.90
43920;DHT22;29578;51.946;5.874;2023-02-18T03:41:24;10.50;92.90
43920;DHT22;29578;51.946;5.874;2023-02-18T03:43:57;10.60;93.00
43920;DHT22;29578;51.946;5.874;2023-02-18T03:46:26;10.60;93.00
43920;DHT22;29578;51.946;5.874;2023-02-18T03:48:51;10.60;93.00
43920;DHT22;29578;51.946;5.874;2023-02-18T03:51:18;10.60;93.00
43920;DHT22;29578;51.946;5.874;2023-02-18T03:53:44;10.50;93.00
43920;DHT22;29578;51.946;5.874;2023-02-18T03:56:10;10.60;93.00
43920;DHT22;29578;51.946;5.874;2023-02-18T03:58:36;10.60;93.00
43920;DHT22;29578;51.946;5.874;2023-02-18T04:01:02;10.60;93.00
43920;DHT22;29578;51.946;5.874;2023-02-18T04:03:28;10.60;93.00
43920;DHT22;29578;51.946;5.874;2023-02-18T04:05:53;10.60;93.00
43920;DHT22;29578;51.946;5.874;2023-02-18T04:08:19;10.60;93.10
43920;DHT22;29578;51.946;5.874;2023-02-18T04:10:45;10.60;93.10
43920;DHT22;29578;51.946;5.874;2023-02-18T04:13:10;10.60;93.10
43920;DHT22;29578;51.946;5.874;2023-02-18T04:15:36;10.60;93.10
43920;DHT22;29578;51.946;5.874;2023-02-18T04:18:02;10.60;93.10
43920;DHT22;29578;51.946;5.874;2023-02-18T04:20:28;10.70;93.10
43920;DHT22;29578;51.946;5.874;2023-02-18T04:22:53;10.60;93.10
43920;DHT22;29578;51.946;5.874;2023-02-18T04:25:19;10.60;93.10
43920;DHT22;29578;51.946;5.874;2023-02-18T04:27:44;10.60;93.10
43920;DHT22;29578;51.946;5.874;2023-02-18T04:30:10;10.60;93.10
43920;DHT22;29578;51.946;5.874;2023-02-18T04:32:36;10.70;93.20
43920;DHT22;29578;51.946;5.874;2023-02-18T04:35:02;10.60;93.20
43920;DHT22;29578;51.946;5.874;2023-02-18T04:37:28;10.60;93.20
43920;DHT22;29578;51.946;5.874;2023-02-18T04:39:54;10.60;93.20
43920;DHT22;29578;51.946;5.874;2023-02-18T04:42:19;10.70;93.20
43920;DHT22;29578;51.946;5.874;2023-02-18T04:44:45;10.60;93.20
43920;DHT22;29578;51.946;5.874;2023-02-18T04:47:10;10.70;93.20
43920;DHT22;29578;51.946;5.874;2023-02-18T04:49:36;10.70;93.20
43920;DHT22;29578;51.946;5.874;2023-02-18T04:52:02;10.70;93.20
43920;DHT22;29578;51.946;5.874;2023-02-18T04:54:28;10.60;93.20
43920;DHT22;29578;51.946;5.874;2023-02-18T04:56:53;10.70;93.30
43920;DHT22;29578;51.946;5.874;2023-02-18T04:59:19;10.60;93.20
43920;DHT22;29578;51.946;5.874;2023-02-18T05:01:45;10.60;93.20
43920;DHT22;29578;51.946;5.874;2023-02-18T05:04:10;10.60;93.30
43920;DHT22;29578;51.946;5.874;2023-02-18T05:06:36;10.70;93.30
43920;DHT22;29578;51.946;5.874;2023-02-18T05:09:04;10.60;93.30
43920;DHT22;29578;51.946;5.874;2023-02-18T05:11:30;10.70;93.30
43920;DHT22;29578;51.946;5.874;2023-02-18T05:13:55;10.60;93.30
43920;DHT22;29578;51.946;5.874;2023-02-18T05:16:21;10.60;93.60
43920;DHT22;29578;51.946;5.874;2023-02-18T05:18:47;10.60;93.30
43920;DHT22;29578;51.946;5.874;2023-02-18T05:21:12;10.60;93.30
43920;DHT22;29578;51.946;5.874;2023-02-18T05:23:38;10.70;93.40
43920;DHT22;29578;51.946;5.874;2023-02-18T05:26:04;10.60;93.30
43920;DHT22;29578;51.946;5.874;2023-02-18T05:28:29;10.60;93.30
43920;DHT22;29578;51.946;5.874;2023-02-18T05:30:55;10.60;93.30
43920;DHT22;29578;51.946;5.874;2023-02-18T05:33:21;10.60;93.40
43920;DHT22;29578;51.946;5.874;2023-02-18T05:35:47;10.60;93.40
43920;DHT22;29578;51.946;5.874;2023-02-18T05:38:13;10.60;93.40
43920;DHT22;29578;51.946;5.874;2023-02-18T05:40:39;10.60;93.40
43920;DHT22;29578;51.946;5.874;2023-02-18T05:43:04;10.60;93.40
43920;DHT22;29578;51.946;5.874;2023-02-18T05:45:30;10.60;93.40
43920;DHT22;29578;51.946;5.874;2023-02-18T05:47:56;10.60;93.40
43920;DHT22;29578;51.946;5.874;2023-02-18T05:50:22;10.60;93.40
43920;DHT22;29578;51.946;5.874;2023-02-18T05:52:47;10.60;93.50
43920;DHT22;29578;51.946;5.874;2023-02-18T05:55:13;10.60;93.50
43920;DHT22;29578;51.946;5.874;2023-02-18T05:57:39;10.60;93.50
43920;DHT22;29578;51.946;5.874;2023-02-18T06:00:05;10.60;93.50
43920;DHT22;29578;51.946;5.874;2023-02-18T06:02:33;10.60;93.50
43920;DHT22;29578;51.946;5.874;2023-02-18T06:04:59;10.60;93.50
43920;DHT22;29578;51.946;5.874;2023-02-18T06:07:24;10.60;93.60
43920;DHT22;29578;51.946;5.874;2023-02-18T06:09:50;10.60;93.60
43920;DHT22;29578;51.946;5.874;2023-02-18T06:12:19;10.50;93.50
43920;DHT22;29578;51.946;5.874;2023-02-18T06:14:45;10.50;93.60
43920;DHT22;29578;51.946;5.874;2023-02-18T06:17:12;10.50;93.60
43920;DHT22;29578;51.946;5.874;2023-02-18T06:19:38;10.50;93.60
43920;DHT22;29578;51.946;5.874;2023-02-18T06:22:04;10.50;93.60
43920;DHT22;29578;51.946;5.874;2023-02-18T06:24:30;10.50;93.60
43920;DHT22;29578;51.946;5.874;2023-02-18T06:26:56;10.50;93.60
43920;DHT22;29578;51.946;5.874;2023-02-18T06:29:22;10.50;93.60
43920;DHT22;29578;51.946;5.874;2023-02-18T06:31:47;10.50;93.60
43920;DHT22;29578;51.946;5.874;2023-02-18T06:34:13;10.50;93.70
43920;DHT22;29578;51.946;5.874;2023-02-18T06:36:41;10.40;93.60
43920;DHT22;29578;51.946;5.874;2023-02-18T06:39:07;10.40;93.70
43920;DHT22;29578;51.946;5.874;2023-02-18T06:41:33;10.40;93.70
43920;DHT22;29578;51.946;5.874;2023-02-18T06:43:59;10.40;93.70
43920;DHT22;29578;51.946;5.874;2023-02-18T06:46:24;10.50;93.70
43920;DHT22;29578;51.946;5.874;2023-02-18T06:48:50;10.40;93.70
43920;DHT22;29578;51.946;5.874;2023-02-18T06:51:16;10.40;93.70
43920;DHT22;29578;51.946;5.874;2023-02-18T06:53:44;10.40;93.70
43920;DHT22;29578;51.946;5.874;2023-02-18T06:56:10;10.40;93.70
43920;DHT22;29578;51.946;5.874;2023-02-18T06:58:36;10.40;93.70
43920;DHT22;29578;51.946;5.874;2023-02-18T07:01:03;10.30;93.70
43920;DHT22;29578;51.946;5.874;2023-02-18T07:03:29;10.30;93.70
43920;DHT22;29578;51.946;5.874;2023-02-18T07:05:54;10.40;93.80
43920;DHT22;29578;51.946;5.874;2023-02-18T07:08:20;10.30;93.80
43920;DHT22;29578;51.946;5.874;2023-02-18T07:10:46;10.40;93.80
43920;DHT22;29578;51.946;5.874;2023-02-18T07:13:13;10.30;93.80
43920;DHT22;29578;51.946;5.874;2023-02-18T07:15:38;10.30;93.80
43920;DHT22;29578;51.946;5.874;2023-02-18T07:18:04;10.30;93.80
43920;DHT22;29578;51.946;5.874;2023-02-18T07:20:30;10.30;93.80
43920;DHT22;29578;51.946;5.874;2023-02-18T07:22:56;10.30;93.80
43920;DHT22;29578;51.946;5.874;2023-02-18T07:25:22;10.40;93.90
43920;DHT22;29578;51.946;5.874;2023-02-18T07:27:47;10.30;93.80
43920;DHT22;29578;51.946;5.874;2023-02-18T07:30:13;10.30;94.10
43920;DHT22;29578;51.946;5.874;2023-02-18T07:32:39;10.30;93.80
43920;DHT22;29578;51.946;5.874;2023-02-18T07:35:05;10.40;93.80
43920;DHT22;29578;51.946;5.874;2023-02-18T07:37:31;10.30;93.80
43920;DHT22;29578;51.946;5.874;2023-02-18T07:39:57;10.30;93.80
43920;DHT22;29578;51.946;5.874;2023-02-18T07:42:23;10.30;93.80
43920;DHT22;29578;51.946;5.874;2023-02-18T07:44:48;10.30;93.80
43920;DHT22;29578;51.946;5.874;2023-02-18T07:47:15;10.30;94.10
43920;DHT22;29578;51.946;5.874;2023-02-18T07:49:44;10.30;93.80
43920;DHT22;29578;51.946;5.874;2023-02-18T07:52:10;10.30;93.80
43920;DHT22;29578;51.946;5.874;2023-02-18T07:54:35;10.30;93.80
43920;DHT22;29578;51.946;5.874;2023-02-18T07:57:01;10.30;93.80
43920;DHT22;29578;51.946;5.874;2023-02-18T07:59:27;10.40;93.80
43920;DHT22;29578;51.946;5.874;2023-02-18T08:01:52;10.40;93.80
43920;DHT22;29578;51.946;5.874;2023-02-18T08:04:18;10.40;93.80
43920;DHT22;29578;51.946;5.874;2023-02-18T08:06:46;10.30;93.70
43920;DHT22;29578;51.946;5.874;2023-02-18T08:09:12;10.40;93.70
43920;DHT22;29578;51.946;5.874;2023-02-18T08:11:38;10.30;93.70
43920;DHT22;29578;51.946;5.874;2023-02-18T08:14:04;10.40;93.70
43920;DHT22;29578;51.946;5.874;2023-02-18T08:16:30;10.40;93.70
43920;DHT22;29578;51.946;5.874;2023-02-18T08:18:56;10.40;93.60
43920;DHT22;29578;51.946;5.874;2023-02-18T08:21:23;10.40;93.60
43920;DHT22;29578;51.946;5.874;2023-02-18T08:23:50;10.40;93.60
43920;DHT22;29578;51.946;5.874;2023-02-18T08:26:17;10.40;93.60
43920;DHT22;29578;51.946;5.874;2023-02-18T08:28:44;10.40;93.60
43920;DHT22;29578;51.946;5.874;2023-02-18T08:31:20;10.40;93.50
43920;DHT22;29578;51.946;5.874;2023-02-18T08:33:46;10.50;93.80
43920;DHT22;29578;51.946;5.874;2023-02-18T08:36:12;10.40;93.50
43920;DHT22;29578;51.946;5.874;2023-02-18T08:38:38;10.40;93.50
43920;DHT22;29578;51.946;5.874;2023-02-18T08:41:06;10.40;93.50
43920;DHT22;29578;51.946;5.874;2023-02-18T08:43:31;10.40;93.50
43920;DHT22;29578;51.946;5.874;2023-02-18T08:45:58;10.40;93.50
43920;DHT22;29578;51.946;5.874;2023-02-18T08:48:24;10.30;93.50
43920;DHT22;29578;51.946;5.874;2023-02-18T08:50:50;10.30;93.50
43920;DHT22;29578;51.946;5.874;2023-02-18T08:53:16;10.30;93.50
43920;DHT22;29578;51.946;5.874;2023-02-18T08:55:43;10.30;93.50
43920;DHT22;29578;51.946;5.874;2023-02-18T08:58:09;10.30;93.50
43920;DHT22;29578;51.946;5.874;2023-02-18T09:00:35;10.30;93.50
43920;DHT22;29578;51.946;5.874;2023-02-18T09:03:01;10.20;93.50
43920;DHT22;29578;51.946;5.874;2023-02-18T09:05:27;10.20;93.50
43920;DHT22;29578;51.946;5.874;2023-02-18T09:07:53;10.30;93.50
43920;DHT22;29578;51.946;5.874;2023-02-18T09:10:19;10.10;93.50
43920;DHT22;29578;51.946;5.874;2023-02-18T09:12:44;10.20;93.40
43920;DHT22;29578;51.946;5.874;2023-02-18T09:15:10;10.10;93.40
43920;DHT22;29578;51.946;5.874;2023-02-18T09:17:36;10.00;93.50
43920;DHT22;29578;51.946;5.874;2023-02-18T09:20:02;10.00;93.50
43920;DHT22;29578;51.946;5.874;2023-02-18T09:22:28;10.00;93.60
43920;DHT22;29578;51.946;5.874;2023-02-18T09:24:54;10.00;93.60
43920;DHT22;29578;51.946;5.874;2023-02-18T09:27:20;9.90;93.50
43920;DHT22;29578;51.946;5.874;2023-02-18T09:29:47;10.00;93.60
43920;DHT22;29578;51.946;5.874;2023-02-18T09:32:16;9.90;93.60
43920;DHT22;29578;51.946;5.874;2023-02-18T09:34:43;9.80;93.60
43920;DHT22;29578;51.946;5.874;2023-02-18T09:37:09;9.80;93.60
43920;DHT22;29578;51.946;5.874;2023-02-18T09:39:35;9.80;93.60
43920;DHT22;29578;51.946;5.874;2023-02-18T09:42:04;9.80;93.60
43920;DHT22;29578;51.946;5.874;2023-02-18T09:44:36;9.80;93.60
43920;DHT22;29578;51.946;5.874;2023-02-18T09:47:10;9.80;93.60
43920;DHT22;29578;51.946;5.874;2023-02-18T09:49:40;9.80;93.60
43920;DHT22;29578;51.946;5.874;2023-02-18T09:52:29;9.90;93.60
43920;DHT22;29578;51.946;5.874;2023-02-18T09:54:55;9.90;93.50
43920;DHT22;29578;51.946;5.874;2023-02-18T09:57:25;9.90;93.50
43920;DHT22;29578;51.946;5.874;2023-02-18T09:59:58;9.90;93.40
43920;DHT22;29578;51.946;5.874;2023-02-18T10:02:25;9.90;93.40
43920;DHT22;29578;51.946;5.874;2023-02-18T10:04:51;9.80;93.40
43920;DHT22;29578;51.946;5.874;2023-02-18T10:07:25;9.90;93.40
43920;DHT22;29578;51.946;5.874;2023-02-18T10:09:53;9.90;93.40
43920;DHT22;29578;51.946;5.874;2023-02-18T10:12:21;9.90;93.40
43920;DHT22;29578;51.946;5.874;2023-02-18T10:14:51;9.90;93.30
43920;DHT22;29578;51.946;5.874;2023-02-18T10:17:17;10.00;93.30
43920;DHT22;29578;51.946;5.874;2023-02-18T10:19:46;10.00;93.30
43920;DHT22;29578;51.946;5.874;2023-02-18T10:22:14;10.00;93.20
43920;DHT22;29578;51.946;5.874;2023-02-18T10:24:47;10.00;93.20
43920;DHT22;29578;51.946;5.874;2023-02-18T10:27:26;10.00;93.20
43920;DHT22;29578;51.946;5.874;2023-02-18T10:29:54;10.10;93.20
43920;DHT22;29578;51.946;5.874;2023-02-18T10:32:33;10.00;93.10
43920;DHT22;29578;51.946;5.874;2023-02-18T10:35:18;10.00;93.20
43920;DHT22;29578;51.946;5.874;2023-02-18T10:37:56;10.00;93.20
43920;DHT22;29578;51.946;5.874;2023-02-18T10:43:48;10.00;93.20
43920;DHT22;29578;51.946;5.874;2023-02-18T10:46:28;9.90;93.20
43920;DHT22;29578;51.946;5.874;2023-02-18T10:49:08;10.00;93.20
43920;DHT22;29578;51.946;5.874;2023-02-18T10:51:49;10.00;93.20
43920;DHT22;29578;51.946;5.874;2023-02-18T10:54:15;10.00;93.20
43920;DHT22;29578;51.946;5.874;2023-02-18T10:56:47;10.00;93.10
43920;DHT22;29578;51.946;5.874;2023-02-18T10:59:19;10.00;93.10
43920;DHT22;29578;51.946;5.874;2023-02-18T11:01:54;10.00;93.10
43920;DHT22;29578;51.946;5.874;2023-02-18T11:04:25;10.00;93.20
43920;DHT22;29578;51.946;5.874;2023-02-18T11:06:51;10.00;93.20
43920;DHT22;29578;51.946;5.874;2023-02-18T11:09:39;9.90;93.20
43920;DHT22;29578;51.946;5.874;2023-02-18T11:12:16;9.90;93.20
43920;DHT22;29578;51.946;5.874;2023-02-18T11:14:46;10.00;93.20
43920;DHT22;29578;51.946;5.874;2023-02-18T11:17:19;10.00;93.20
43920;DHT22;29578;51.946;5.874;2023-02-18T11:19:54;10.10;93.20
43920;DHT22;29578;51.946;5.874;2023-02-18T11:22:24;10.20;93.20
43920;DHT22;29578;51.946;5.874;2023-02-18T11:24:55;10.10;93.10
43920;DHT22;29578;51.946;5.874;2023-02-18T11:27:30;10.30;93.10
43920;DHT22;29578;51.946;5.874;2023-02-18T11:30:04;10.20;93.10
43920;DHT22;29578;51.946;5.874;2023-02-18T11:32:33;10.30;93.10
43920;DHT22;29578;51.946;5.874;2023-02-18T11:35:03;10.40;93.00
43920;DHT22;29578;51.946;5.874;2023-02-18T11:37:31;10.30;93.00
43920;DHT22;29578;51.946;5.874;2023-02-18T11:39:57;10.30;93.00
43920;DHT22;29578;51.946;5.874;2023-02-18T11:42:25;10.30;93.00
43920;DHT22;29578;51.946;5.874;2023-02-18T11:44:55;10.40;93.00
43920;DHT22;29578;51.946;5.874;2023-02-18T11:47:24;10.50;93.00
43920;DHT22;29578;51.946;5.874;2023-02-18T11:50:17;10.50;92.90
43920;DHT22;29578;51.946;5.874;2023-02-18T11:52:47;10.70;92.90
43920;DHT22;29578;51.946;5.874;2023-02-18T11:55:19;10.60;92.80
43920;DHT22;29578;51.946;5.874;2023-02-18T11:58:03;10.70;92.70
43920;DHT22;29578;51.946;5.874;2023-02-18T12:00:42;10.70;92.70
43920;DHT22;29578;51.946;5.874;2023-02-18T12:03:27;10.70;92.70
43920;DHT22;29578;51.946;5.874;2023-02-18T12:05:57;10.60;92.60
43920;DHT22;29578;51.946;5.874;2023-02-18T12:08:29;10.70;92.60
43920;DHT22;29578;51.946;5.874;2023-02-18T12:10:59;10.80;92.70
43920;DHT22;29578;51.946;5.874;2023-02-18T12:13:53;10.80;92.60
43920;DHT22;29578;51.946;5.874;2023-02-18T12:16:37;10.80;92.50
43920;DHT22;29578;51.946;5.874;2023-02-18T12:19:32;10.80;92.50
43920;DHT22;29578;51.946;5.874;2023-02-18T12:22:18;10.80;92.60
43920;DHT22;29578;51.946;5.874;2023-02-18T12:27:55;10.70;92.60
43920;DHT22;29578;51.946;5.874;2023-02-18T12:33:38;10.70;92.70
43920;DHT22;29578;51.946;5.874;2023-02-18T12:39:13;10.70;92.80
43920;DHT22;29578;51.946;5.874;2023-02-18T12:41:59;10.70;92.80
43920;DHT22;29578;51.946;5.874;2023-02-18T12:44:57;10.70;92.80
43920;DHT22;29578;51.946;5.874;2023-02-18T12:47:56;10.70;92.80
43920;DHT22;29578;51.946;5.874;2023-02-18T12:50:43;10.80;92.80
43920;DHT22;29578;51.946;5.874;2023-02-18T12:53:24;10.80;92.70
43920;DHT22;29578;51.946;5.874;2023-02-18T12:56:25;10.90;92.70
43920;DHT22;29578;51.946;5.874;2023-02-18T13:01:57;10.90;92.70
43920;DHT22;29578;51.946;5.874;2023-02-18T13:04:43;10.90;92.60
43920;DHT22;29578;51.946;5.874;2023-02-18T13:07:25;10.90;92.60
43920;DHT22;29578;51.946;5.874;2023-02-18T13:13:21;10.90;92.60
43920;DHT22;29578;51.946;5.874;2023-02-18T13:15:54;10.90;92.60
43920;DHT22;29578;51.946;5.874;2023-02-18T13:18:28;10.90;92.60
43920;DHT22;29578;51.946;5.874;2023-02-18T13:20:58;10.90;92.60
43920;DHT22;29578;51.946;5.874;2023-02-18T13:23:29;10.90;92.60
43920;DHT22;29578;51.946;5.874;2023-02-18T13:25:59;11.00;92.60
43920;DHT22;29578;51.946;5.874;2023-02-18T13:28:39;11.00;92.50
43920;DHT22;29578;51.946;5.874;2023-02-18T13:34:12;11.10;92.40
43920;DHT22;29578;51.946;5.874;2023-02-18T13:37:03;11.20;92.40
43920;DHT22;29578;51.946;5.874;2023-02-18T13:39:32;11.20;92.40
43920;DHT22;29578;51.946;5.874;2023-02-18T13:42:25;11.30;92.40
43920;DHT22;29578;51.946;5.874;2023-02-18T13:45:03;11.30;92.40
43920;DHT22;29578;51.946;5.874;2023-02-18T13:47:42;11.20;92.30
43920;DHT22;29578;51.946;5.874;2023-02-18T13:50:27;11.20;92.30
43920;DHT22;29578;51.946;5.874;2023-02-18T13:53:12;11.30;92.30
43920;DHT22;29578;51.946;5.874;2023-02-18T13:55:52;11.30;92.30
43920;DHT22;29578;51.946;5.874;2023-02-18T14:01:21;11.20;92.30
43920;DHT22;29578;51.946;5.874;2023-02-18T14:03:53;11.30;92.30
43920;DHT22;29578;51.946;5.874;2023-02-18T14:06:24;11.20;92.30
43920;DHT22;29578;51.946;5.874;2023-02-18T14:08:51;11.20;92.30
43920;DHT22;29578;51.946;5.874;2023-02-18T14:11:46;11.20;92.30
43920;DHT22;29578;51.946;5.874;2023-02-18T14:14:32;11.20;92.30
43920;DHT22;29578;51.946;5.874;2023-02-18T14:17:28;11.20;92.30
43920;DHT22;29578;51.946;5.874;2023-02-18T14:20:26;11.20;92.30
43920;DHT22;29578;51.946;5.874;2023-02-18T14:22:52;11.30;92.30
43920;DHT22;29578;51.946;5.874;2023-02-18T14:25:32;11.20;92.30
43920;DHT22;29578;51.946;5.874;2023-02-18T14:28:03;11.20;92.30
43920;DHT22;29578;51.946;5.874;2023-02-18T14:30:36;11.20;92.20
43920;DHT22;29578;51.946;5.874;2023-02-18T14:33:03;11.20;92.20
43920;DHT22;29578;51.946;5.874;2023-02-18T14:35:34;11.30;92.20
43920;DHT22;29578;51.946;5.874;2023-02-18T14:44:20;11.20;92.20
43920;DHT22;29578;51.946;5.874;2023-02-18T14:47:23;11.30;92.30
43920;DHT22;29578;51.946;5.874;2023-02-18T14:49:52;11.30;92.20
43920;DHT22;29578;51.946;5.874;2023-02-18T14:52:30;11.30;92.20
43920;DHT22;29578;51.946;5.874;2023-02-18T14:54:59;11.30;92.10
43920;DHT22;29578;51.946;5.874;2023-02-18T14:57:33;11.30;92.10
43920;DHT22;29578;51.946;5.874;2023-02-18T15:00:03;11.30;92.10
43920;DHT22;29578;51.946;5.874;2023-02-18T15:02:35;11.30;92.10
43920;DHT22;29578;51.946;5.874;2023-02-18T15:05:17;11.30;92.10
43920;DHT22;29578;51.946;5.874;2023-02-18T15:08:04;11.30;92.10
43920;DHT22;29578;51.946;5.874;2023-02-18T15:10:48;11.30;92.10
43920;DHT22;29578;51.946;5.874;2023-02-18T15:13:30;11.30;92.10
43920;DHT22;29578;51.946;5.874;2023-02-18T15:16:03;11.30;92.10
43920;DHT22;29578;51.946;5.874;2023-02-18T15:18:35;11.30;92.10
43920;DHT22;29578;51.946;5.874;2023-02-18T15:21:04;11.30;92.10
43920;DHT22;29578;51.946;5.874;2023-02-18T15:23:33;11.40;92.10
43920;DHT22;29578;51.946;5.874;2023-02-18T15:25:59;11.40;92.10
43920;DHT22;29578;51.946;5.874;2023-02-18T15:28:28;11.40;92.00
43920;DHT22;29578;51.946;5.874;2023-02-18T15:30:56;11.40;92.00
43920;DHT22;29578;51.946;5.874;2023-02-18T15:33:23;11.40;91.90
43920;DHT22;29578;51.946;5.874;2023-02-18T15:35:49;11.50;91.90
43920;DHT22;29578;51.946;5.874;2023-02-18T15:38:17;11.40;91.90
43920;DHT22;29578;51.946;5.874;2023-02-18T15:40:45;11.40;91.90
43920;DHT22;29578;51.946;5.874;2023-02-18T15:43:14;11.40;91.90
43920;DHT22;29578;51.946;5.874;2023-02-18T15:45:43;11.40;92.00
43920;DHT22;29578;51.946;5.874;2023-02-18T15:48:30;11.40;92.00
43920;DHT22;29578;51.946;5.874;2023-02-18T15:51:00;11.40;92.00
43920;DHT22;29578;51.946;5.874;2023-02-18T15:53:27;11.40;92.00
43920;DHT22;29578;51.946;5.874;2023-02-18T15:55:53;11.30;91.90
43920;DHT22;29578;51.946;5.874;2023-02-18T15:58:25;11.40;92.00
43920;DHT22;29578;51.946;5.874;2023-02-18T16:00:54;11.40;92.00
43920;DHT22;29578;51.946;5.874;2023-02-18T16:03:26;11.40;91.90
43920;DHT22;29578;51.946;5.874;2023-02-18T16:06:11;11.40;92.00
43920;DHT22;29578;51.946;5.874;2023-02-18T16:08:38;11.30;92.00
43920;DHT22;29578;51.946;5.874;2023-02-18T16:11:08;11.30;92.00
43920;DHT22;29578;51.946;5.874;2023-02-18T16:13:37;11.30;91.90
43920;DHT22;29578;51.946;5.874;2023-02-18T16:16:21;11.30;92.00
43920;DHT22;29578;51.946;5.874;2023-02-18T16:18:48;11.30;92.00
43920;DHT22;29578;51.946;5.874;2023-02-18T16:21:28;11.30;92.00
43920;DHT22;29578;51.946;5.874;2023-02-18T16:23:58;11.20;91.90
43920;DHT22;29578;51.946;5.874;2023-02-18T16:26:41;11.30;92.00
43920;DHT22;29578;51.946;5.874;2023-02-18T16:29:24;11.20;92.00
43920;DHT22;29578;51.946;5.874;2023-02-18T16:31:51;11.20;92.00
43920;DHT22;29578;51.946;5.874;2023-02-18T16:34:17;11.20;92.00
43920;DHT22;29578;51.946;5.874;2023-02-18T16:36:43;11.10;92.00
43920;DHT22;29578;51.946;5.874;2023-02-18T16:39:19;11.10;92.00
43920;DHT22;29578;51.946;5.874;2023-02-18T16:41:45;11.10;92.00
43920;DHT22;29578;51.946;5.874;2023-02-18T16:44:12;11.10;92.10
43920;DHT22;29578;51.946;5.874;2023-02-18T16:46:38;11.00;92.00
43920;DHT22;29578;51.946;5.874;2023-02-18T16:49:04;11.10;92.10
43920;DHT22;29578;51.946;5.874;2023-02-18T16:51:33;11.10;92.10
43920;DHT22;29578;51.946;5.874;2023-02-18T16:53:59;11.10;92.10
43920;DHT22;29578;51.946;5.874;2023-02-18T16:56:26;11.10;92.00